Time;durP1;ratioP1;P1;durP2;ratioP2;P2;SDS_P1;SDS_P2;PMS_P1;PMS_P2;Temp;Humidity;BMP_temperature;BMP_pressure;BME280_temperature;BME280_humidity;BME280_pressure;Samples;Min_cycle;Max_cycle;Signal;HPM_P1;HPM_P2
2024/03/13 00:02:12;;;;;;;11.07;8.17;;;8.10;91.20;;;9.82;61.66;97544.25;5030710;28;20079;-43
2024/03/13 00:04:43;;;;;;;9.43;7.30;;;8.10;91.40;;;9.83;61.68;97537.94;5030798;28;20041;-44
2024/03/13 00:07:13;;;;;;;10.40;6.53;;;8.10;91.60;;;9.84;61.59;97534.28;5013815;28;20513;-43
2024/03/13 00:09:50;;;;;;;8.10;4.67;;;8.10;91.80;;;9.82;61.68;97536.25;5012017;28;20375;-43
2024/03/13 00:12:18;;;;;;;5.67;4.33;;;8.00;91.30;;;9.81;61.62;97536.44;5006193;28;20043;-43
2024/03/13 00:14:51;;;;;;;6.93;5.70;;;8.00;91.70;;;9.81;61.95;97531.97;5011762;28;20063;-43
2024/03/13 00:17:20;;;;;;;7.03;5.20;;;8.00;91.60;;;9.77;61.71;97525.28;5004917;28;20410;-43
2024/03/13 00:19:54;;;;;;;7.70;5.33;;;8.00;90.80;;;9.79;61.94;97522.44;5011567;28;20042;-44
2024/03/13 00:22:25;;;;;;;6.70;5.10;;;8.00;91.10;;;9.80;61.81;97508.19;5006323;28;20034;-43
2024/03/13 00:24:58;;;;;;;6.07;4.63;;;8.00;91.30;;;9.78;61.82;97511.00;5014143;28;20043;-44
2024/03/13 00:27:26;;;;;;;6.13;4.03;;;8.00;91.30;;;9.79;61.59;97510.00;5029655;28;20041;-43
2024/03/13 00:29:53;;;;;;;6.30;4.13;;;8.00;91.60;;;9.77;61.78;97505.81;5027020;28;20052;-42
2024/03/13 00:32:24;;;;;;;5.73;3.33;;;8.00;91.20;;;9.74;61.99;97499.00;5012017;28;20525;-43
2024/03/13 00:34:52;;;;;;;7.03;4.13;;;8.00;91.00;;;9.74;61.79;97500.84;5012334;28;20050;-43
2024/03/13 00:37:21;;;;;;;4.50;3.33;;;8.00;90.40;;;9.70;61.84;97489.69;5030556;28;20048;-43
2024/03/13 00:39:49;;;;;;;5.80;3.77;;;8.00;90.30;;;9.68;61.68;97486.38;5029814;28;20516;-44
2024/03/13 00:42:17;;;;;;;5.30;3.97;;;8.00;90.00;;;9.62;61.75;97487.81;5004943;28;20046;-43
2024/03/13 00:44:45;;;;;;;4.63;2.93;;;8.00;89.60;;;9.56;61.89;97493.78;5012028;28;20061;-44
2024/03/13 00:47:14;;;;;;;5.83;4.10;;;8.00;89.60;;;9.53;62.21;97495.91;5027394;28;20055;-44
2024/03/13 00:49:42;;;;;;;5.43;3.30;;;8.00;90.00;;;9.56;62.51;97490.31;5029888;28;20522;-43
2024/03/13 00:52:10;;;;;;;7.07;3.90;;;8.00;90.50;;;9.61;62.29;97496.78;5017445;28;20056;-44
2024/03/13 00:54:46;;;;;;;6.13;3.50;;;8.00;90.50;;;9.65;62.09;97491.97;5012662;28;20051;-44
2024/03/13 00:57:17;;;;;;;5.43;3.00;;;8.00;90.90;;;9.62;61.84;97487.00;5027738;28;20044;-44
2024/03/13 00:59:46;;;;;;;6.57;2.87;;;8.00;90.60;;;9.61;62.31;97490.63;5028364;28;20063;-44
2024/03/13 01:02:14;;;;;;;4.33;2.37;;;7.90;91.20;;;9.60;62.10;97494.31;5015632;28;20414;-43
2024/03/13 01:04:42;;;;;;;4.07;2.67;;;7.90;90.90;;;9.56;62.00;97485.81;5012495;28;20061;-45
2024/03/13 01:07:10;;;;;;;3.83;2.57;;;7.90;90.80;;;9.55;62.16;97483.31;5003744;28;20047;-44
2024/03/13 01:09:38;;;;;;;4.63;3.00;;;7.90;91.10;;;9.53;62.38;97485.28;4992300;28;20052;-43
2024/03/13 01:12:07;;;;;;;5.73;2.53;;;7.90;91.00;;;9.56;62.18;97488.47;5021440;28;20483;-43
2024/03/13 01:14:35;;;;;;;4.40;2.63;;;7.90;91.20;;;9.59;61.97;97482.81;5029785;28;20052;-44
2024/03/13 01:17:03;;;;;;;4.03;2.33;;;7.90;91.30;;;9.62;62.27;97487.81;5023166;28;20048;-44
2024/03/13 01:19:34;;;;;;;4.03;2.27;;;7.90;91.50;;;9.65;61.82;97486.66;5012119;28;20039;-43
2024/03/13 01:22:12;;;;;;;3.87;2.57;;;7.90;91.20;;;9.65;62.21;97495.50;5017305;28;20047;-44
2024/03/13 01:24:42;;;;;;;5.30;2.80;;;7.90;91.50;;;9.65;62.21;97487.53;5029899;28;20045;-43
2024/03/13 01:27:10;;;;;;;4.03;2.47;;;7.90;92.20;;;9.61;62.18;97488.81;5019285;28;20041;-43
2024/03/13 01:29:41;;;;;;;4.07;2.53;;;7.90;91.30;;;9.63;61.94;97500.13;5012003;28;20445;-43
2024/03/13 01:32:11;;;;;;;3.80;2.30;;;7.80;91.90;;;9.65;62.30;97502.63;5021385;28;20043;-43
2024/03/13 01:34:38;;;;;;;4.80;2.43;;;7.80;92.00;;;9.68;61.88;97501.50;5029426;28;20048;-43
2024/03/13 01:39:52;;;;;;;6.57;2.27;;;7.80;92.30;;;9.71;61.90;97496.66;5009435;28;20054;-43
2024/03/13 01:56:26;;;;;;;4.80;2.90;;;7.80;93.80;;;9.71;61.86;97495.84;5027492;28;20052;-44
2024/03/13 01:59:20;;;;;;;3.57;2.10;;;7.70;94.30;;;9.71;62.16;97499.31;5028190;28;20071;-43
2024/03/13 02:04:55;;;;;;;2.83;2.37;;;7.80;94.20;;;9.66;62.28;97498.97;5064712;28;20050;-43
2024/03/13 02:07:24;;;;;;;4.27;2.10;;;7.80;93.60;;;9.62;62.27;97494.97;5068506;28;20041;-43
2024/03/13 02:09:54;;;;;;;3.10;2.07;;;7.80;92.90;;;9.61;62.52;97494.13;5053280;28;20056;-43
2024/03/13 02:12:22;;;;;;;3.10;2.00;;;7.80;93.10;;;9.61;62.59;97488.81;5012603;28;20030;-44
2024/03/13 02:14:49;;;;;;;2.57;1.70;;;7.80;92.80;;;9.64;62.17;97477.03;5011702;28;20498;-44
2024/03/13 02:17:17;;;;;;;2.57;1.80;;;7.80;93.60;;;9.65;62.49;97478.69;5023352;28;20105;-43
2024/03/13 02:19:46;;;;;;;4.13;1.70;;;7.80;92.80;;;9.68;62.05;97478.38;5028422;28;20048;-44
2024/03/13 02:22:14;;;;;;;3.13;1.73;;;7.80;92.90;;;9.65;62.38;97476.03;5018231;28;20040;-43
2024/03/13 02:24:43;;;;;;;2.63;1.60;;;7.80;92.80;;;9.62;62.22;97471.06;5010584;28;20046;-43
2024/03/13 02:27:12;;;;;;;2.13;1.93;;;7.80;92.60;;;9.65;62.27;97470.72;5018326;28;20050;-44
2024/03/13 02:29:41;;;;;;;2.73;1.63;;;7.80;92.60;;;9.62;62.11;97466.56;5027381;28;20040;-43
2024/03/13 02:32:11;;;;;;;3.83;1.80;;;7.80;91.80;;;9.60;62.42;97475.69;5023540;28;20408;-43
2024/03/13 02:34:41;;;;;;;2.70;1.60;;;7.80;91.90;;;9.58;62.67;97467.06;5011044;28;20051;-43
2024/03/13 02:37:09;;;;;;;2.83;1.90;;;7.80;91.90;;;9.59;62.47;97471.38;5016162;28;20062;-43
2024/03/13 02:39:37;;;;;;;1.80;1.43;;;7.80;92.00;;;9.61;62.61;97466.72;5028940;28;20499;-43
2024/03/13 02:42:07;;;;;;;3.10;1.73;;;7.80;92.20;;;9.63;62.33;97460.28;5030643;28;20052;-44
2024/03/13 02:44:35;;;;;;;2.43;1.73;;;7.80;92.40;;;9.65;62.16;97463.59;5015037;28;20038;-44
2024/03/13 02:47:03;;;;;;;1.63;1.50;;;7.80;92.70;;;9.68;62.25;97458.97;5015081;28;20414;-43
2024/03/13 02:49:30;;;;;;;2.33;1.60;;;7.80;92.30;;;9.66;62.07;97457.28;5006864;28;20038;-43
2024/03/13 02:51:58;;;;;;;4.43;2.00;;;7.80;92.90;;;9.68;62.05;97450.97;5009706;28;20056;-45
2024/03/13 02:54:26;;;;;;;2.90;1.70;;;7.80;92.80;;;9.68;62.56;97451.81;5017036;28;20043;-43
2024/03/13 02:56:53;;;;;;;2.40;1.80;;;7.80;92.60;;;9.67;62.06;97458.09;5013656;28;20490;-43
2024/03/13 02:59:21;;;;;;;3.87;1.60;;;7.80;92.30;;;9.66;61.99;97453.78;5026829;28;20046;-43
2024/03/13 03:01:49;;;;;;;3.50;1.60;;;7.70;93.00;;;9.63;62.03;97460.28;5032582;28;20488;-42
2024/03/13 03:04:18;;;;;;;2.70;2.20;;;7.80;93.10;;;9.63;61.90;97462.06;5023509;28;20060;-42
2024/03/13 03:06:46;;;;;;;2.73;2.03;;;7.70;93.00;;;9.63;62.12;97462.06;5014642;28;20042;-42
2024/03/13 03:09:13;;;;;;;3.00;1.87;;;7.80;92.90;;;9.63;62.23;97464.72;5020807;28;20421;-43
2024/03/13 03:11:44;;;;;;;5.23;1.80;;;7.80;93.10;;;9.64;62.15;97458.44;5031765;28;20044;-43
2024/03/13 03:14:12;;;;;;;2.33;1.53;;;7.80;92.90;;;9.65;62.25;97462.75;5026806;28;20048;-44
2024/03/13 03:16:40;;;;;;;3.23;1.50;;;7.80;93.10;;;9.62;62.22;97465.75;5014579;28;20057;-43
2024/03/13 03:19:07;;;;;;;1.57;1.13;;;7.80;92.80;;;9.58;62.56;97467.06;5014217;28;20081;-42
2024/03/13 03:21:35;;;;;;;2.00;1.20;;;7.80;92.60;;;9.57;62.41;97470.69;5031646;28;20036;-44
2024/03/13 03:24:03;;;;;;;2.20;1.50;;;7.80;92.50;;;9.51;62.27;97466.84;5031996;28;20045;-43
2024/03/13 03:26:33;;;;;;;2.47;1.50;;;7.80;91.90;;;9.50;62.60;97464.34;5006526;28;20514;-42
2024/03/13 03:29:00;;;;;;;2.10;1.37;;;7.80;92.30;;;9.51;62.65;97466.00;5014123;28;20054;-41
2024/03/13 03:31:28;;;;;;;3.20;1.80;;;7.80;92.40;;;9.51;62.60;97466.00;5028547;28;20044;-44
2024/03/13 03:33:56;;;;;;;3.07;1.83;;;7.80;92.60;;;9.51;62.77;97458.03;5030643;28;20053;-44
2024/03/13 03:36:24;;;;;;;2.33;1.57;;;7.80;92.80;;;9.50;62.57;97472.31;5019910;28;20055;-44
2024/03/13 03:38:52;;;;;;;1.73;1.43;;;7.80;92.80;;;9.51;62.69;97469.50;5014147;28;20050;-44
2024/03/13 03:41:19;;;;;;;2.90;1.70;;;7.70;93.20;;;9.51;62.97;97474.00;5021496;28;20046;-44
2024/03/13 03:43:47;;;;;;;2.77;1.67;;;7.70;93.70;;;9.52;62.86;97478.28;5031589;28;20055;-44
2024/03/13 03:46:15;;;;;;;2.10;1.40;;;7.70;93.60;;;9.54;62.59;97473.66;5025887;28;20051;-44
2024/03/13 03:48:43;;;;;;;4.03;1.67;;;7.70;93.60;;;9.58;62.79;97475.03;5013961;28;20061;-44
2024/03/13 03:51:16;;;;;;;2.03;1.50;;;7.80;93.10;;;9.58;62.83;97475.03;5014728;28;20054;-44
2024/03/13 03:53:44;;;;;;;2.25;1.60;;;7.80;92.80;;;9.58;62.79;97475.84;5031565;28;20052;-44
2024/03/13 03:56:12;;;;;;;3.47;1.60;;;7.70;93.00;;;9.53;62.53;97474.66;5028984;28;20059;-43
2024/03/13 03:58:42;;;;;;;1.57;1.30;;;7.80;92.60;;;9.47;62.86;97470.81;5014127;28;20054;-44
2024/03/13 04:01:10;;;;;;;1.90;1.20;;;7.80;92.50;;;9.51;62.66;97474.81;5013595;28;20433;-44
2024/03/13 04:03:38;;;;;;;2.47;1.30;;;7.80;92.40;;;9.54;62.68;97478.97;5031422;28;20060;-43
2024/03/13 04:06:06;;;;;;;2.10;1.57;;;7.70;93.00;;;9.55;62.87;97472.69;5031616;28;20041;-44
2024/03/13 04:08:34;;;;;;;1.90;1.37;;;7.70;93.40;;;9.57;62.90;97473.34;5014539;28;20495;-45
2024/03/13 04:11:02;;;;;;;3.27;1.90;;;7.80;93.00;;;9.53;63.00;97472.81;5013360;28;20047;-44
2024/03/13 04:13:30;;;;;;;2.23;1.60;;;7.80;93.10;;;9.56;62.78;97471.69;5026599;28;20062;-43
2024/03/13 04:16:00;;;;;;;2.77;1.87;;;7.70;93.30;;;9.55;62.97;97478.00;5030765;28;20048;-43
2024/03/13 04:18:28;;;;;;;2.20;1.40;;;7.80;93.40;;;9.58;62.97;97480.34;5019323;28;20055;-43
2024/03/13 04:20:56;;;;;;;2.30;1.47;;;7.80;93.30;;;9.57;62.79;97470.69;5013047;28;20050;-44
2024/03/13 04:23:23;;;;;;;1.93;1.40;;;7.80;92.90;;;9.57;62.77;97476.00;5021302;28;20050;-43
2024/03/13 04:25:52;;;;;;;1.83;1.37;;;7.80;93.30;;;9.60;62.82;97476.53;5030834;28;20048;-43
2024/03/13 04:28:19;;;;;;;1.60;1.20;;;7.80;93.50;;;9.61;62.60;97475.50;5025648;28;20059;-43
2024/03/13 04:30:47;;;;;;;2.03;1.60;;;7.80;93.60;;;9.61;62.95;97475.50;5013058;28;20045;-43
2024/03/13 04:33:16;;;;;;;2.57;1.60;;;7.80;93.50;;;9.59;62.76;97477.50;5012821;28;20050;-44
2024/03/13 04:35:44;;;;;;;1.80;1.40;;;7.80;93.50;;;9.60;62.88;97475.69;5029388;28;20059;-43
2024/03/13 04:38:18;;;;;;;2.50;1.70;;;7.80;93.50;;;9.60;63.02;97481.84;5030656;28;20049;-43
2024/03/13 04:40:46;;;;;;;2.27;1.63;;;7.80;93.60;;;9.60;62.94;97487.16;5004449;28;20062;-43
2024/03/13 04:43:14;;;;;;;1.90;1.50;;;7.80;93.50;;;9.62;62.66;97487.00;5012724;28;20046;-44
2024/03/13 04:45:41;;;;;;;1.97;1.77;;;7.80;93.80;;;9.61;62.69;97485.31;5013088;28;20042;-44
2024/03/13 04:48:09;;;;;;;3.47;1.70;;;7.80;93.20;;;9.60;62.74;97492.47;5012957;28;20102;-44
2024/03/13 04:50:38;;;;;;;3.50;1.77;;;7.80;93.70;;;9.61;62.78;97494.13;5028186;28;20044;-43
2024/03/13 04:53:06;;;;;;;2.60;1.60;;;7.80;93.60;;;9.58;62.88;97489.16;5030140;28;20040;-43
2024/03/13 04:55:33;;;;;;;2.20;1.50;;;7.80;93.60;;;9.50;63.15;97499.75;5017527;28;20047;-43
2024/03/13 04:58:01;;;;;;;2.50;1.40;;;7.80;93.10;;;9.48;63.09;97500.88;5012864;28;20290;-45
2024/03/13 05:00:29;;;;;;;2.07;1.60;;;7.80;93.20;;;9.48;63.44;97504.38;5021674;28;20043;-43
2024/03/13 05:02:56;;;;;;;4.03;2.10;;;7.80;94.10;;;9.53;63.10;97510.03;5028409;28;20044;-44
2024/03/13 05:05:24;;;;;;;2.70;1.90;;;7.80;94.20;;;9.55;63.02;97504.56;5022768;28;20056;-43
2024/03/13 05:07:52;;;;;;;4.23;2.20;;;7.80;93.80;;;9.57;63.15;97506.06;5012920;28;20043;-43
2024/03/13 05:10:23;;;;;;;2.60;1.70;;;7.80;94.60;;;9.59;63.24;97511.22;5015932;28;20043;-43
2024/03/13 05:12:52;;;;;;;2.27;1.97;;;7.80;94.50;;;9.61;62.96;97506.59;5029658;28;20052;-43
2024/03/13 05:15:19;;;;;;;3.40;2.07;;;7.80;94.40;;;9.62;63.38;97513.59;5028282;28;20037;-43
2024/03/13 05:17:49;;;;;;;3.00;2.23;;;7.80;94.80;;;9.61;63.24;97509.25;5012728;28;20046;-44
2024/03/13 05:20:18;;;;;;;4.13;2.27;;;7.80;95.00;;;9.58;63.11;97506.91;5012160;28;20117;-45
2024/03/13 05:22:46;;;;;;;3.00;2.00;;;7.80;94.80;;;9.58;63.05;97510.41;5004800;28;20043;-44
2024/03/13 05:25:19;;;;;;;4.67;2.50;;;7.80;94.60;;;9.58;63.33;97514.91;5012303;28;20050;-43
2024/03/13 05:27:47;;;;;;;4.57;2.63;;;7.80;95.10;;;9.55;63.31;97531.97;5005010;28;20050;-42
2024/03/13 05:30:16;;;;;;;2.80;2.13;;;7.80;95.10;;;9.59;63.11;97524.50;5011774;28;20043;-43
2024/03/13 05:32:44;;;;;;;3.70;2.07;;;7.80;94.80;;;9.60;63.42;97529.69;5028390;28;20051;-43
2024/03/13 05:35:15;;;;;;;3.13;2.30;;;7.80;95.00;;;9.62;63.06;97521.56;5029717;28;20393;-43
2024/03/13 05:37:43;;;;;;;5.83;3.40;;;7.80;95.10;;;9.64;63.08;97524.88;5012783;28;20288;-42
2024/03/13 05:40:16;;;;;;;3.07;2.57;;;7.70;95.40;;;9.59;63.08;97524.50;5011807;28;20058;-43
2024/03/13 05:42:45;;;;;;;;;;;7.70;96.30;;;9.57;63.36;97534.47;5012301;28;20054;-43
2024/03/13 05:45:15;;;;;;;2.43;2.20;;;7.70;96.60;;;9.58;62.99;97536.16;5012243;28;19929;-43
2024/03/13 05:47:43;;;;;;;3.83;2.50;;;7.70;96.90;;;9.60;63.55;97540.31;5028309;28;20052;-42
2024/03/13 05:50:12;;;;;;;4.47;3.67;;;7.70;96.30;;;9.59;63.08;97533.31;5028942;28;20396;-42
2024/03/13 05:52:40;;;;;;;5.27;2.83;;;7.70;96.80;;;9.60;63.67;97542.16;5015719;28;20138;-42
2024/03/13 05:55:08;;;;;;;4.57;3.07;;;7.80;96.40;;;9.60;63.45;97532.34;5011849;28;20046;-43
2024/03/13 05:57:38;;;;;;;5.00;2.83;;;7.80;96.10;;;9.61;63.30;97535.81;5022156;28;20118;-43
2024/03/13 06:00:12;;;;;;;4.03;3.53;;;7.70;97.00;;;9.61;63.45;97541.13;5028931;28;20384;-43
2024/03/13 06:02:43;;;;;;;;;;;7.80;96.80;;;9.56;63.61;97538.97;5016460;28;20044;-42
2024/03/13 06:05:14;;;;;;;4.53;3.23;;;7.80;96.20;;;9.57;63.35;97543.28;5010959;28;19929;-43
2024/03/13 06:07:42;;;;;;;4.63;3.40;;;7.70;96.70;;;9.59;63.71;97541.28;5026082;28;20048;-42
2024/03/13 06:10:10;;;;;;;5.70;3.40;;;7.80;96.30;;;9.63;63.45;97547.13;5028916;28;20037;-43
2024/03/13 06:12:39;;;;;;;4.70;3.40;;;7.80;97.00;;;9.64;63.75;97546.97;5017548;28;20037;-43
2024/03/13 06:15:07;;;;;;;4.53;3.40;;;7.80;97.20;;;9.63;63.76;97547.97;5010768;28;20049;-43
2024/03/13 06:17:35;;;;;;;4.27;3.40;;;7.80;96.90;;;9.65;63.84;97548.66;5020125;28;20051;-42
2024/03/13 06:20:06;;;;;;;4.27;3.13;;;7.80;96.70;;;9.63;63.96;97555.97;5028573;28;20040;-42
2024/03/13 06:22:35;;;;;;;7.37;4.07;;;7.90;96.80;;;9.66;63.73;97560.13;5020988;28;20086;-42
2024/03/13 06:25:06;;;;;;;4.50;3.93;;;7.90;96.90;;;9.69;63.96;97561.63;5010303;28;20038;-42
2024/03/13 06:27:35;;;;;;;6.10;3.40;;;7.90;96.80;;;9.65;63.87;97561.09;5017623;28;20495;-42
2024/03/13 06:30:05;;;;;;;5.17;4.00;;;7.80;96.80;;;9.63;64.08;97565.75;5028139;28;20041;-42
2024/03/13 06:32:33;;;;;;;6.47;3.43;;;7.80;97.30;;;9.63;63.76;97563.06;5022563;28;20044;-42
2024/03/13 06:35:04;;;;;;;6.37;3.60;;;7.80;96.80;;;9.66;64.23;97568.91;5011358;28;20047;-42
2024/03/13 06:37:33;;;;;;;5.37;3.70;;;7.80;97.40;;;9.70;63.70;97569.44;5031786;28;20078;-42
2024/03/13 06:40:01;;;;;;;5.13;3.73;;;7.80;97.80;;;9.73;63.85;97571.81;5028198;28;20033;-42
2024/03/13 06:42:29;;;;;;;5.10;3.70;;;7.90;97.60;;;9.75;63.72;97574.28;5026798;28;20048;-42
2024/03/13 06:44:57;;;;;;;4.57;3.57;;;7.90;97.10;;;9.74;63.61;97573.44;5029151;28;20495;-42
2024/03/13 06:47:24;;;;;;;5.10;3.53;;;7.90;97.00;;;9.75;63.74;97568.97;5027299;28;20276;-42
2024/03/13 06:49:52;;;;;;;6.53;3.50;;;7.90;97.90;;;9.74;64.18;97573.44;5001734;28;20047;-43
2024/03/13 06:52:20;;;;;;;5.87;4.50;;;7.90;97.80;;;9.78;64.04;97568.66;5011418;28;20414;-41
2024/03/13 06:54:47;;;;;;;7.00;4.70;;;7.90;97.80;;;9.78;64.12;97572.13;5024106;28;20053;-41
2024/03/13 06:57:15;;;;;;;5.50;4.33;;;7.90;97.60;;;9.83;63.92;97577.00;5028446;28;20491;-41
2024/03/13 06:59:44;;;;;;;5.60;4.20;;;7.90;98.10;;;9.85;64.18;97575.84;5014926;28;20135;-42
2024/03/13 07:02:13;;;;;;;5.57;3.87;;;8.00;98.60;;;9.85;63.93;97570.53;5011747;28;20413;-41
2024/03/13 07:04:42;;;;;;;4.83;3.93;;;8.00;98.90;;;9.87;64.14;97573.03;5019864;28;20054;-41
2024/03/13 07:07:10;;;;;;;5.77;4.00;;;8.00;98.50;;;9.89;64.16;97571.03;5028603;28;20051;-43
2024/03/13 07:09:39;;;;;;;5.77;4.40;;;8.00;98.10;;;9.91;64.00;97569.06;5020828;28;20092;-43
2024/03/13 07:12:07;;;;;;;5.80;3.90;;;8.00;98.80;;;9.95;64.03;97573.06;5009894;28;20049;-42
2024/03/13 07:14:35;;;;;;;8.63;5.23;;;8.10;98.90;;;9.99;64.09;97578.91;5015688;28;20529;-41
2024/03/13 07:17:02;;;;;;;8.90;4.57;;;8.10;99.00;;;10.03;64.53;97586.41;5028859;28;20139;-42
2024/03/13 07:19:33;;;;;;;5.37;3.80;;;8.10;99.30;;;10.07;64.10;97583.44;5027364;28;20037;-43
2024/03/13 07:22:01;;;;;;;6.23;3.67;;;8.10;99.40;;;10.11;64.13;97584.78;5009430;28;20529;-43
2024/03/13 07:24:29;;;;;;;5.10;3.47;;;8.20;99.40;;;10.11;63.99;97590.91;5010890;28;20059;-42
2024/03/13 07:26:56;;;;;;;4.57;3.70;;;8.20;99.50;;;10.12;64.16;97581.97;5005750;28;20043;-42
2024/03/13 07:29:27;;;;;;;4.90;3.70;;;8.20;99.60;;;10.15;64.16;97589.59;5014170;28;20039;-42
2024/03/13 07:31:56;;;;;;;5.27;4.13;;;8.20;99.90;;;10.18;64.46;97589.28;5031238;28;20044;-42
2024/03/13 07:34:23;;;;;;;4.73;3.97;;;8.20;99.90;;;10.19;64.18;97595.44;5031214;28;20040;-43
2024/03/13 07:36:51;;;;;;;4.57;3.57;;;8.30;99.90;;;10.22;64.49;97592.47;5016765;28;20061;-42
2024/03/13 07:39:20;;;;;;;5.93;3.80;;;8.30;99.90;;;10.23;64.26;97588.81;5013523;28;20050;-41
2024/03/13 07:41:48;;;;;;;5.37;4.07;;;8.40;99.90;;;10.24;64.31;97593.16;4976325;28;20058;-41
2024/03/13 07:44:16;;;;;;;7.90;3.93;;;8.40;99.90;;;10.29;64.46;97595.31;5013800;28;20046;-41
2024/03/13 07:46:43;;;;;;;5.07;3.53;;;8.40;99.90;;;10.33;64.65;97602.00;5014570;28;20048;-43
2024/03/13 07:49:13;;;;;;;6.70;4.60;;;8.50;99.90;;;10.32;64.69;97603.84;5031000;28;20059;-45
2024/03/13 07:51:41;;;;;;;8.77;3.80;;;8.50;99.50;;;10.34;64.78;97598.38;5024960;28;20048;-43
2024/03/13 07:54:09;;;;;;;5.53;4.00;;;8.60;99.30;;;10.37;64.63;97608.66;5013885;28;20046;-42
2024/03/13 07:56:38;;;;;;;7.83;3.67;;;8.60;98.90;;;10.40;64.59;97608.38;5017140;28;20054;-41
2024/03/13 07:59:06;;;;;;;5.80;3.87;;;8.60;99.30;;;10.42;64.37;97611.69;5031204;28;20044;-41
2024/03/13 08:01:43;;;;;;;7.10;3.90;;;8.60;99.50;;;10.47;64.59;97608.53;5029137;28;20056;-41
2024/03/13 08:04:11;;;;;;;4.33;2.73;;;8.70;99.90;;;10.52;64.60;97611.56;5013641;28;20062;-41
2024/03/13 08:06:39;;;;;;;5.63;3.70;;;8.70;99.70;;;10.56;64.57;97610.25;5017395;28;20445;-41
2024/03/13 08:09:28;;;;;;;7.83;3.73;;;8.70;99.90;;;10.59;64.85;97615.25;5030843;28;20037;-40
2024/03/13 08:12:13;;;;;;;5.70;3.83;;;8.80;99.70;;;10.57;64.76;97614.59;5007186;28;20053;-41
2024/03/13 08:14:58;;;;;;;6.60;3.43;;;8.80;99.90;;;10.53;64.67;97616.72;5029801;28;20099;-41
2024/03/13 08:17:44;;;;;;;6.17;3.60;;;8.90;99.10;;;10.58;64.92;97614.41;5023674;28;20067;-42
2024/03/13 08:20:30;;;;;;;3.97;2.97;;;9.00;98.90;;;10.65;64.67;97625.25;5013045;28;20042;-42
2024/03/13 08:23:15;;;;;;;4.33;3.60;;;9.00;98.80;;;10.71;64.99;97627.25;5012162;28;20342;-42
2024/03/13 08:26:00;;;;;;;5.53;2.87;;;9.10;99.60;;;10.78;64.74;97633.59;5030385;28;20029;-43
2024/03/13 08:28:45;;;;;;;5.20;3.40;;;9.00;99.90;;;10.86;64.92;97629.28;5023942;28;20106;-43
2024/03/13 08:31:32;;;;;;;4.07;3.00;;;9.10;99.90;;;10.89;64.97;97632.44;5012817;28;20038;-43
2024/03/13 08:34:17;;;;;;;6.07;3.40;;;9.10;99.90;;;10.90;65.24;97634.13;5015298;28;20035;-44
2024/03/13 08:37:05;;;;;;;9.10;4.90;;;9.20;99.90;;;10.93;64.96;97639.13;5017922;28;20054;-42
2024/03/13 08:39:50;;;;;;;4.87;3.57;;;9.20;99.90;;;10.96;64.85;97640.63;5054552;28;20405;-42
2024/03/13 08:42:35;;;;;;;5.03;3.27;;;9.30;99.90;;;11.01;65.10;97639.16;5017538;28;20049;-43
2024/03/13 08:45:20;;;;;;;4.60;3.20;;;9.30;99.90;;;11.04;65.18;97640.66;5007625;28;20052;-42
2024/03/13 08:48:07;;;;;;;4.63;3.57;;;9.40;99.90;;;11.11;64.89;97644.31;5004107;28;20030;-42
2024/03/13 08:50:54;;;;;;;5.90;3.20;;;9.40;99.90;;;11.17;65.13;97653.50;5011763;28;20034;-43
2024/03/13 08:53:40;;;;;;;5.03;3.07;;;9.40;99.90;;;11.19;64.88;97660.31;5013901;28;20046;-43
2024/03/13 08:56:27;;;;;;;5.03;3.60;;;9.50;99.90;;;11.24;65.01;97662.47;5030541;28;20056;-42
2024/03/13 08:59:12;;;;;;;5.10;3.40;;;9.50;99.90;;;11.26;64.92;97668.47;5005228;28;20042;-43
2024/03/13 09:01:59;;;;;;;4.73;3.30;;;9.60;99.90;;;11.30;65.11;97660.97;5024403;28;20054;-42
2024/03/13 09:04:45;;;;;;;5.23;3.60;;;9.60;99.90;;;11.34;65.24;97667.66;5026420;28;20040;-42
2024/03/13 09:07:31;;;;;;;6.73;3.30;;;9.60;99.90;;;11.31;65.04;97660.00;5012729;28;20035;-42
2024/03/13 09:09:59;;;;;;;6.40;3.70;;;9.60;99.90;;;11.37;65.41;97670.00;5012225;28;20049;-42
2024/03/13 09:12:27;;;;;;;5.40;3.67;;;9.70;99.90;;;11.41;65.43;97671.31;5010987;28;20047;-43
2024/03/13 09:14:55;;;;;;;6.77;3.60;;;9.70;99.90;;;11.49;65.31;97678.50;5023147;28;20058;-43
2024/03/13 09:17:24;;;;;;;4.37;3.17;;;9.80;99.90;;;11.55;65.54;97672.50;5030040;28;20371;-43
2024/03/13 09:19:52;;;;;;;6.57;4.23;;;9.90;99.90;;;11.61;65.53;97675.34;5021190;28;20048;-42
2024/03/13 09:22:22;;;;;;;3.77;2.80;;;9.90;99.90;;;11.67;65.64;97679.19;5012597;28;20066;-43
2024/03/13 09:24:50;;;;;;;3.43;2.70;;;10.00;99.90;;;11.69;65.84;97679.84;5018246;28;20054;-42
2024/03/13 09:27:18;;;;;;;3.60;2.83;;;10.10;99.90;;;11.74;65.68;97688.16;5014083;28;20044;-43
2024/03/13 09:29:47;;;;;;;4.63;3.03;;;10.10;99.90;;;11.77;65.51;97681.69;5014823;28;20293;-43
2024/03/13 09:32:15;;;;;;;3.47;2.70;;;10.10;99.90;;;11.81;65.37;97686.50;5008467;28;20117;-43
2024/03/13 09:34:43;;;;;;;5.43;2.57;;;10.20;99.90;;;11.89;65.76;97677.69;5012860;28;20521;-43
2024/03/13 09:37:12;;;;;;;3.80;2.80;;;10.20;99.90;;;11.95;65.76;97686.84;5029826;28;20048;-42
2024/03/13 09:39:40;;;;;;;4.40;2.80;;;10.30;99.90;;;11.99;65.90;97683.66;5028970;28;20048;-43
2024/03/13 09:42:16;;;;;;;3.80;2.50;;;10.30;99.90;;;12.03;65.87;97681.50;5011657;28;20039;-42
2024/03/13 09:44:46;;;;;;;4.13;2.27;;;10.40;99.90;;;12.09;65.68;97685.31;5012757;28;20047;-43
2024/03/13 09:47:14;;;;;;;3.70;2.40;;;10.40;99.90;;;12.14;65.81;97685.66;5029105;28;20072;-44
2024/03/13 09:49:44;;;;;;;3.03;2.20;;;10.50;99.90;;;12.20;65.99;97691.13;5028602;28;20048;-44
2024/03/13 09:52:15;;;;;;;2.57;1.77;;;10.60;99.90;;;12.27;65.56;97685.09;4973164;28;20498;-42
2024/03/13 09:54:45;;;;;;;2.53;1.90;;;10.70;99.90;;;12.32;65.83;97683.59;5029283;28;20055;-41
2024/03/13 09:57:15;;;;;;;2.60;2.00;;;10.70;99.90;;;12.38;65.72;97692.75;5010820;28;20043;-41
2024/03/13 09:59:43;;;;;;;2.47;2.03;;;10.70;99.90;;;12.43;65.89;97693.09;5010371;28;20406;-40
2024/03/13 10:02:19;;;;;;;2.60;1.87;;;10.80;99.90;;;12.49;65.73;97699.56;5003538;28;20043;-42
2024/03/13 10:04:48;;;;;;;4.70;1.90;;;10.80;99.90;;;12.53;65.51;97695.56;5011541;28;20069;-43
2024/03/13 10:07:21;;;;;;;4.03;2.22;;;10.90;99.90;;;12.56;65.66;97700.53;4980764;28;20545;-43
2024/03/13 10:09:49;;;;;;;3.13;1.73;;;10.90;99.90;;;12.54;65.67;97700.72;5011523;28;20053;-42
2024/03/13 10:12:20;;;;;;;3.07;2.10;;;10.90;99.90;;;12.56;65.83;97701.38;5027225;28;20040;-42
2024/03/13 10:14:50;;;;;;;4.03;2.47;;;10.90;99.90;;;12.55;65.75;97704.22;5024929;28;20059;-43
2024/03/13 10:17:23;;;;;;;5.27;1.87;;;10.90;99.90;;;12.53;66.32;97711.56;4971252;28;20043;-43
2024/03/13 10:19:55;;;;;;;4.03;2.30;;;10.80;99.90;;;12.50;66.11;97707.38;4970357;28;20047;-43
2024/03/13 10:22:25;;;;;;;3.10;1.87;;;10.80;99.90;;;12.51;66.24;97710.91;5026307;28;20047;-43
2024/03/13 10:24:55;;;;;;;9.70;3.72;;;10.80;99.90;;;12.51;66.41;97702.91;5022037;28;20436;-43
2024/03/13 10:27:24;;;;;;;2.90;2.30;;;10.90;99.90;;;12.52;66.37;97709.91;5010262;28;20422;-45
2024/03/13 10:29:53;;;;;;;3.03;2.23;;;11.00;99.90;;;12.49;66.47;97711.09;5014266;28;20043;-44
2024/03/13 10:32:22;;;;;;;2.70;2.17;;;10.90;99.90;;;12.48;66.89;97712.06;5028580;28;20045;-44
2024/03/13 10:34:50;;;;;;;2.55;2.05;;;10.90;99.90;;;12.46;66.80;97703.41;5023466;28;20055;-44
2024/03/13 10:37:19;;;;;;;4.53;2.20;;;10.90;99.90;;;12.53;67.08;97716.91;5010002;28;20445;-44
2024/03/13 10:39:47;;;;;;;8.52;3.55;;;10.90;99.90;;;12.52;67.09;97718.75;5010492;28;20059;-46
2024/03/13 10:42:14;;;;;;;6.60;3.30;;;11.00;99.90;;;12.54;66.94;97707.88;5001931;28;20038;-45
2024/03/13 10:44:43;;;;;;;3.77;2.47;;;11.00;99.90;;;12.54;67.14;97708.75;5010343;28;20061;-44
2024/03/13 10:47:12;;;;;;;7.53;5.80;;;11.00;99.90;;;12.55;67.02;97712.22;5026866;28;20043;-43
2024/03/13 10:49:41;;;;;;;4.43;3.30;;;11.00;99.90;;;12.45;67.46;97711.59;5028212;28;20040;-45
2024/03/13 10:52:12;;;;;;;3.75;3.00;;;10.90;99.90;;;12.47;67.05;97714.94;5013654;28;20037;-46
2024/03/13 10:54:40;;;;;;;5.60;3.67;;;10.90;99.90;;;12.51;67.26;97717.09;5011216;28;20050;-44
2024/03/13 10:57:17;;;;;;;5.00;3.15;;;10.90;99.90;;;12.54;67.45;97721.25;5024149;28;20047;-46
2024/03/13 10:59:49;;;;;;;4.05;3.10;;;10.90;99.90;;;12.49;67.36;97712.94;5028012;28;20280;-43
2024/03/13 11:02:17;;;;;;;3.72;3.22;;;10.80;99.90;;;12.44;67.75;97718.75;5006279;28;20047;-44
2024/03/13 11:04:45;;;;;;;4.73;3.83;;;10.90;99.90;;;12.41;67.88;97719.13;5014564;28;20058;-45